sensor_id;sensor_type;location;lat;lon;timestamp;temperature;humidity
41678;DHT22;27364;49.026;8.712;2023-04-24T00:00:14;11.40;99.90
41678;DHT22;27364;49.026;8.712;2023-04-24T00:02:44;11.40;99.90
41678;DHT22;27364;49.026;8.712;2023-04-24T00:05:17;11.40;99.90
41678;DHT22;27364;49.026;8.712;2023-04-24T00:07:44;11.30;99.90
41678;DHT22;27364;49.026;8.712;2023-04-24T00:10:10;11.30;99.90
41678;DHT22;27364;49.026;8.712;2023-04-24T00:12:36;11.40;99.90
41678;DHT22;27364;49.026;8.712;2023-04-24T00:15:02;11.50;99.90
41678;DHT22;27364;49.026;8.712;2023-04-24T00:17:28;11.60;99.90
41678;DHT22;27364;49.026;8.712;2023-04-24T00:19:53;11.60;99.90
41678;DHT22;27364;49.026;8.712;2023-04-24T00:22:24;11.60;99.90
41678;DHT22;27364;49.026;8.712;2023-04-24T00:24:50;11.60;99.90
41678;DHT22;27364;49.026;8.712;2023-04-24T00:27:15;11.60;99.90
41678;DHT22;27364;49.026;8.712;2023-04-24T00:29:41;11.70;99.90
41678;DHT22;27364;49.026;8.712;2023-04-24T00:32:07;11.70;99.90
41678;DHT22;27364;49.026;8.712;2023-04-24T00:34:32;11.70;99.90
41678;DHT22;27364;49.026;8.712;2023-04-24T00:36:58;11.70;99.90
41678;DHT22;27364;49.026;8.712;2023-04-24T00:39:23;11.70;99.90
41678;DHT22;27364;49.026;8.712;2023-04-24T00:41:49;11.70;99.90
41678;DHT22;27364;49.026;8.712;2023-04-24T00:44:16;11.80;99.90
41678;DHT22;27364;49.026;8.712;2023-04-24T00:46:42;11.80;99.90
41678;DHT22;27364;49.026;8.712;2023-04-24T00:49:07;11.80;99.90
41678;DHT22;27364;49.026;8.712;2023-04-24T00:51:33;11.80;99.90
41678;DHT22;27364;49.026;8.712;2023-04-24T00:54:00;11.80;99.90
41678;DHT22;27364;49.026;8.712;2023-04-24T00:56:25;11.90;99.90
41678;DHT22;27364;49.026;8.712;2023-04-24T00:58:51;11.90;99.90
41678;DHT22;27364;49.026;8.712;2023-04-24T01:01:21;11.90;99.90
41678;DHT22;27364;49.026;8.712;2023-04-24T01:03:49;11.80;99.90
41678;DHT22;27364;49.026;8.712;2023-04-24T01:06:16;11.90;99.90
41678;DHT22;27364;49.026;8.712;2023-04-24T01:08:42;12.00;99.90
41678;DHT22;27364;49.026;8.712;2023-04-24T01:11:08;12.00;99.90
41678;DHT22;27364;49.026;8.712;2023-04-24T01:13:34;12.00;99.90
41678;DHT22;27364;49.026;8.712;2023-04-24T01:16:00;12.00;99.90
41678;DHT22;27364;49.026;8.712;2023-04-24T01:18:26;11.90;99.90
41678;DHT22;27364;49.026;8.712;2023-04-24T01:20:54;11.90;99.90
41678;DHT22;27364;49.026;8.712;2023-04-24T01:23:22;11.90;99.90
41678;DHT22;27364;49.026;8.712;2023-04-24T01:25:49;11.90;99.90
41678;DHT22;27364;49.026;8.712;2023-04-24T01:28:15;11.90;99.90
41678;DHT22;27364;49.026;8.712;2023-04-24T01:30:41;11.80;99.90
41678;DHT22;27364;49.026;8.712;2023-04-24T01:33:07;11.90;99.90
41678;DHT22;27364;49.026;8.712;2023-04-24T01:35:33;11.90;99.90
41678;DHT22;27364;49.026;8.712;2023-04-24T01:37:58;11.90;99.90
41678;DHT22;27364;49.026;8.712;2023-04-24T01:40:24;12.00;99.90
41678;DHT22;27364;49.026;8.712;2023-04-24T01:42:50;11.90;99.90
41678;DHT22;27364;49.026;8.712;2023-04-24T01:45:16;11.90;99.90
41678;DHT22;27364;49.026;8.712;2023-04-24T01:47:41;11.90;99.90
41678;DHT22;27364;49.026;8.712;2023-04-24T01:50:07;11.90;99.90
41678;DHT22;27364;49.026;8.712;2023-04-24T01:52:33;12.00;99.90
41678;DHT22;27364;49.026;8.712;2023-04-24T01:55:00;12.00;99.90
41678;DHT22;27364;49.026;8.712;2023-04-24T01:57:26;11.90;99.90
41678;DHT22;27364;49.026;8.712;2023-04-24T01:59:51;12.00;99.90
41678;DHT22;27364;49.026;8.712;2023-04-24T02:02:17;11.90;99.90
41678;DHT22;27364;49.026;8.712;2023-04-24T02:04:43;12.00;99.90
41678;DHT22;27364;49.026;8.712;2023-04-24T02:07:09;12.00;99.90
41678;DHT22;27364;49.026;8.712;2023-04-24T02:09:34;11.90;99.90
41678;DHT22;27364;49.026;8.712;2023-04-24T02:12:00;11.90;99.90
41678;DHT22;27364;49.026;8.712;2023-04-24T02:14:26;11.80;99.90
41678;DHT22;27364;49.026;8.712;2023-04-24T02:16:51;11.80;99.90
41678;DHT22;27364;49.026;8.712;2023-04-24T02:19:17;11.70;99.90
41678;DHT22;27364;49.026;8.712;2023-04-24T02:21:42;11.80;99.90
41678;DHT22;27364;49.026;8.712;2023-04-24T02:24:08;11.80;99.90
41678;DHT22;27364;49.026;8.712;2023-04-24T02:26:33;11.80;99.90
41678;DHT22;27364;49.026;8.712;2023-04-24T02:28:59;11.70;99.90
41678;DHT22;27364;49.026;8.712;2023-04-24T02:31:25;11.80;99.90
41678;DHT22;27364;49.026;8.712;2023-04-24T02:33:50;11.80;99.90
41678;DHT22;27364;49.026;8.712;2023-04-24T02:36:16;11.70;99.90
41678;DHT22;27364;49.026;8.712;2023-04-24T02:38:41;11.70;99.90
41678;DHT22;27364;49.026;8.712;2023-04-24T02:41:07;11.70;99.90
41678;DHT22;27364;49.026;8.712;2023-04-24T02:43:32;11.70;99.90
41678;DHT22;27364;49.026;8.712;2023-04-24T02:45:59;11.70;99.90
41678;DHT22;27364;49.026;8.712;2023-04-24T02:48:24;11.70;99.90
41678;DHT22;27364;49.026;8.712;2023-04-24T02:50:50;11.70;99.90
41678;DHT22;27364;49.026;8.712;2023-04-24T02:53:16;11.70;99.90
41678;DHT22;27364;49.026;8.712;2023-04-24T02:55:41;11.70;99.90
41678;DHT22;27364;49.026;8.712;2023-04-24T02:58:07;11.70;99.90
41678;DHT22;27364;49.026;8.712;2023-04-24T03:00:33;11.70;99.90
41678;DHT22;27364;49.026;8.712;2023-04-24T03:02:59;11.70;99.90
41678;DHT22;27364;49.026;8.712;2023-04-24T03:05:25;11.80;99.90
41678;DHT22;27364;49.026;8.712;2023-04-24T03:07:50;11.70;99.90
41678;DHT22;27364;49.026;8.712;2023-04-24T03:10:18;11.70;99.90
41678;DHT22;27364;49.026;8.712;2023-04-24T03:12:43;11.80;99.90
41678;DHT22;27364;49.026;8.712;2023-04-24T03:15:09;11.80;99.90
41678;DHT22;27364;49.026;8.712;2023-04-24T03:17:36;11.80;99.90
41678;DHT22;27364;49.026;8.712;2023-04-24T03:20:02;11.70;99.90
41678;DHT22;27364;49.026;8.712;2023-04-24T03:22:28;11.60;99.90
41678;DHT22;27364;49.026;8.712;2023-04-24T03:24:53;11.50;99.90
41678;DHT22;27364;49.026;8.712;2023-04-24T03:27:20;11.40;99.90
41678;DHT22;27364;49.026;8.712;2023-04-24T03:29:45;11.40;99.90
41678;DHT22;27364;49.026;8.712;2023-04-24T03:32:11;11.30;99.90
41678;DHT22;27364;49.026;8.712;2023-04-24T03:34:36;11.10;99.90
41678;DHT22;27364;49.026;8.712;2023-04-24T03:37:02;11.00;99.90
41678;DHT22;27364;49.026;8.712;2023-04-24T03:39:27;10.90;99.90
41678;DHT22;27364;49.026;8.712;2023-04-24T03:41:53;10.80;99.90
41678;DHT22;27364;49.026;8.712;2023-04-24T03:44:18;10.70;99.90
41678;DHT22;27364;49.026;8.712;2023-04-24T03:46:44;10.70;99.90
41678;DHT22;27364;49.026;8.712;2023-04-24T03:49:09;10.60;99.90
41678;DHT22;27364;49.026;8.712;2023-04-24T03:51:35;10.40;99.90
41678;DHT22;27364;49.026;8.712;2023-04-24T03:54:00;10.40;99.90
41678;DHT22;27364;49.026;8.712;2023-04-24T03:56:26;10.30;99.90
41678;DHT22;27364;49.026;8.712;2023-04-24T03:58:51;10.30;99.90
41678;DHT22;27364;49.026;8.712;2023-04-24T04:01:17;10.20;99.90
41678;DHT22;27364;49.026;8.712;2023-04-24T04:03:44;10.10;99.90
41678;DHT22;27364;49.026;8.712;2023-04-24T04:06:10;10.10;99.90
41678;DHT22;27364;49.026;8.712;2023-04-24T04:08:36;10.00;99.90
41678;DHT22;27364;49.026;8.712;2023-04-24T04:11:01;10.00;99.90
41678;DHT22;27364;49.026;8.712;2023-04-24T04:13:27;9.90;99.90
41678;DHT22;27364;49.026;8.712;2023-04-24T04:15:53;9.90;99.90
41678;DHT22;27364;49.026;8.712;2023-04-24T04:18:18;9.90;99.90
41678;DHT22;27364;49.026;8.712;2023-04-24T04:20:44;9.90;99.90
41678;DHT22;27364;49.026;8.712;2023-04-24T04:23:09;9.80;99.90
41678;DHT22;27364;49.026;8.712;2023-04-24T04:25:35;9.90;99.90
41678;DHT22;27364;49.026;8.712;2023-04-24T04:28:01;9.80;99.90
41678;DHT22;27364;49.026;8.712;2023-04-24T04:30:27;9.80;99.90
41678;DHT22;27364;49.026;8.712;2023-04-24T04:32:54;9.80;99.90
41678;DHT22;27364;49.026;8.712;2023-04-24T04:35:20;9.70;99.90
41678;DHT22;27364;49.026;8.712;2023-04-24T04:37:45;9.70;99.90
41678;DHT22;27364;49.026;8.712;2023-04-24T04:40:11;9.70;99.90
41678;DHT22;27364;49.026;8.712;2023-04-24T04:42:37;9.60;99.90
41678;DHT22;27364;49.026;8.712;2023-04-24T04:45:08;9.60;99.90
41678;DHT22;27364;49.026;8.712;2023-04-24T04:47:34;9.70;99.90
41678;DHT22;27364;49.026;8.712;2023-04-24T04:50:00;9.60;99.90
41678;DHT22;27364;49.026;8.712;2023-04-24T04:52:26;9.60;99.90
41678;DHT22;27364;49.026;8.712;2023-04-24T04:54:52;9.60;99.90
41678;DHT22;27364;49.026;8.712;2023-04-24T04:57:17;9.50;99.90
41678;DHT22;27364;49.026;8.712;2023-04-24T04:59:43;9.50;99.90
41678;DHT22;27364;49.026;8.712;2023-04-24T05:02:09;9.50;99.90
41678;DHT22;27364;49.026;8.712;2023-04-24T05:04:34;9.50;99.90
41678;DHT22;27364;49.026;8.712;2023-04-24T05:07:00;9.40;99.90
41678;DHT22;27364;49.026;8.712;2023-04-24T05:09:25;9.50;99.90
41678;DHT22;27364;49.026;8.712;2023-04-24T05:11:52;9.40;99.90
41678;DHT22;27364;49.026;8.712;2023-04-24T05:14:18;9.40;99.90
41678;DHT22;27364;49.026;8.712;2023-04-24T05:16:44;9.40;99.90
41678;DHT22;27364;49.026;8.712;2023-04-24T05:19:10;9.40;99.90
41678;DHT22;27364;49.026;8.712;2023-04-24T05:21:37;9.40;99.90
41678;DHT22;27364;49.026;8.712;2023-04-24T05:24:02;9.40;99.90
41678;DHT22;27364;49.026;8.712;2023-04-24T05:26:28;9.40;99.90
41678;DHT22;27364;49.026;8.712;2023-04-24T05:28:54;9.40;99.90
41678;DHT22;27364;49.026;8.712;2023-04-24T05:31:19;9.40;99.90
41678;DHT22;27364;49.026;8.712;2023-04-24T05:33:45;9.50;99.90
41678;DHT22;27364;49.026;8.712;2023-04-24T05:36:10;9.50;99.90
41678;DHT22;27364;49.026;8.712;2023-04-24T05:38:36;9.50;99.90
41678;DHT22;27364;49.026;8.712;2023-04-24T05:41:01;9.50;99.90
41678;DHT22;27364;49.026;8.712;2023-04-24T05:43:27;9.60;99.90
41678;DHT22;27364;49.026;8.712;2023-04-24T05:45:52;9.60;99.90
41678;DHT22;27364;49.026;8.712;2023-04-24T05:48:18;9.70;99.90
41678;DHT22;27364;49.026;8.712;2023-04-24T05:50:44;9.70;99.90
41678;DHT22;27364;49.026;8.712;2023-04-24T05:53:10;9.80;99.90
41678;DHT22;27364;49.026;8.712;2023-04-24T05:55:36;9.90;99.90
41678;DHT22;27364;49.026;8.712;2023-04-24T05:58:02;10.00;99.90
41678;DHT22;27364;49.026;8.712;2023-04-24T06:00:28;10.10;99.90
41678;DHT22;27364;49.026;8.712;2023-04-24T06:02:54;10.20;99.90
41678;DHT22;27364;49.026;8.712;2023-04-24T06:05:20;10.30;99.90
41678;DHT22;27364;49.026;8.712;2023-04-24T06:07:46;10.30;99.90
41678;DHT22;27364;49.026;8.712;2023-04-24T06:10:11;10.40;99.90
41678;DHT22;27364;49.026;8.712;2023-04-24T06:12:37;10.40;99.90
41678;DHT22;27364;49.026;8.712;2023-04-24T06:15:03;10.40;99.90
41678;DHT22;27364;49.026;8.712;2023-04-24T06:17:29;10.40;99.90
41678;DHT22;27364;49.026;8.712;2023-04-24T06:19:54;10.40;99.90
41678;DHT22;27364;49.026;8.712;2023-04-24T06:22:20;10.50;99.90
41678;DHT22;27364;49.026;8.712;2023-04-24T06:24:45;10.50;99.90
41678;DHT22;27364;49.026;8.712;2023-04-24T06:27:12;10.50;99.90
41678;DHT22;27364;49.026;8.712;2023-04-24T06:29:38;10.60;99.90
41678;DHT22;27364;49.026;8.712;2023-04-24T06:32:03;10.60;99.90
41678;DHT22;27364;49.026;8.712;2023-04-24T06:34:29;10.60;99.90
41678;DHT22;27364;49.026;8.712;2023-04-24T06:36:56;10.60;99.90
41678;DHT22;27364;49.026;8.712;2023-04-24T06:39:21;10.60;99.90
41678;DHT22;27364;49.026;8.712;2023-04-24T06:41:47;10.70;99.90
41678;DHT22;27364;49.026;8.712;2023-04-24T06:44:12;10.70;99.90
41678;DHT22;27364;49.026;8.712;2023-04-24T06:46:40;10.80;99.90
41678;DHT22;27364;49.026;8.712;2023-04-24T06:49:06;10.70;99.90
41678;DHT22;27364;49.026;8.712;2023-04-24T06:51:31;10.70;99.90
41678;DHT22;27364;49.026;8.712;2023-04-24T06:53:58;10.60;99.90
41678;DHT22;27364;49.026;8.712;2023-04-24T06:56:24;10.60;99.90
41678;DHT22;27364;49.026;8.712;2023-04-24T06:58:50;10.70;99.90
41678;DHT22;27364;49.026;8.712;2023-04-24T07:01:16;10.70;99.90
41678;DHT22;27364;49.026;8.712;2023-04-24T07:03:42;10.60;99.90
41678;DHT22;27364;49.026;8.712;2023-04-24T07:06:08;10.70;99.90
41678;DHT22;27364;49.026;8.712;2023-04-24T07:08:35;10.70;99.90
41678;DHT22;27364;49.026;8.712;2023-04-24T07:11:01;10.70;99.90
41678;DHT22;27364;49.026;8.712;2023-04-24T07:13:27;10.70;99.90
41678;DHT22;27364;49.026;8.712;2023-04-24T07:15:53;10.70;99.90
41678;DHT22;27364;49.026;8.712;2023-04-24T07:18:20;10.70;99.90
41678;DHT22;27364;49.026;8.712;2023-04-24T07:20:46;10.80;99.90
41678;DHT22;27364;49.026;8.712;2023-04-24T07:23:12;10.80;99.90
41678;DHT22;27364;49.026;8.712;2023-04-24T07:25:40;10.80;99.90
41678;DHT22;27364;49.026;8.712;2023-04-24T07:28:06;10.80;99.90
41678;DHT22;27364;49.026;8.712;2023-04-24T07:30:32;10.80;99.90
41678;DHT22;27364;49.026;8.712;2023-04-24T07:32:58;10.90;99.90
41678;DHT22;27364;49.026;8.712;2023-04-24T07:35:24;11.00;99.90
41678;DHT22;27364;49.026;8.712;2023-04-24T07:37:52;10.90;99.90
41678;DHT22;27364;49.026;8.712;2023-04-24T07:40:18;10.90;99.90
41678;DHT22;27364;49.026;8.712;2023-04-24T07:42:44;10.90;99.90
41678;DHT22;27364;49.026;8.712;2023-04-24T07:45:09;10.90;99.90
41678;DHT22;27364;49.026;8.712;2023-04-24T07:47:35;11.00;99.90
41678;DHT22;27364;49.026;8.712;2023-04-24T07:50:02;11.10;99.90
41678;DHT22;27364;49.026;8.712;2023-04-24T07:52:28;11.10;99.90
41678;DHT22;27364;49.026;8.712;2023-04-24T07:54:54;11.10;99.90
41678;DHT22;27364;49.026;8.712;2023-04-24T07:57:24;11.10;99.90
41678;DHT22;27364;49.026;8.712;2023-04-24T07:59:50;11.00;99.90
41678;DHT22;27364;49.026;8.712;2023-04-24T08:02:15;11.10;99.90
41678;DHT22;27364;49.026;8.712;2023-04-24T08:04:41;11.20;99.90
41678;DHT22;27364;49.026;8.712;2023-04-24T08:07:07;11.40;99.90
41678;DHT22;27364;49.026;8.712;2023-04-24T08:09:33;11.40;99.90
41678;DHT22;27364;49.026;8.712;2023-04-24T08:11:59;11.40;99.90
41678;DHT22;27364;49.026;8.712;2023-04-24T08:14:25;11.30;99.90
41678;DHT22;27364;49.026;8.712;2023-04-24T08:16:53;11.10;99.90
41678;DHT22;27364;49.026;8.712;2023-04-24T08:19:19;11.00;99.90
41678;DHT22;27364;49.026;8.712;2023-04-24T08:21:44;11.00;99.90
41678;DHT22;27364;49.026;8.712;2023-04-24T08:24:10;10.90;99.90
41678;DHT22;27364;49.026;8.712;2023-04-24T08:26:35;10.90;99.90
41678;DHT22;27364;49.026;8.712;2023-04-24T08:29:01;11.00;99.90
41678;DHT22;27364;49.026;8.712;2023-04-24T08:31:27;10.90;99.90
41678;DHT22;27364;49.026;8.712;2023-04-24T08:33:52;10.90;99.90
41678;DHT22;27364;49.026;8.712;2023-04-24T08:36:18;10.90;99.90
41678;DHT22;27364;49.026;8.712;2023-04-24T08:38:43;10.90;99.90
41678;DHT22;27364;49.026;8.712;2023-04-24T08:41:09;11.10;99.90
41678;DHT22;27364;49.026;8.712;2023-04-24T08:43:35;11.30;99.90
41678;DHT22;27364;49.026;8.712;2023-04-24T08:46:04;11.40;99.90
41678;DHT22;27364;49.026;8.712;2023-04-24T08:48:30;11.40;99.90
41678;DHT22;27364;49.026;8.712;2023-04-24T08:50:57;11.40;99.90
41678;DHT22;27364;49.026;8.712;2023-04-24T08:53:25;11.30;99.90
41678;DHT22;27364;49.026;8.712;2023-04-24T08:55:51;11.00;99.90
41678;DHT22;27364;49.026;8.712;2023-04-24T08:58:17;10.60;99.90
41678;DHT22;27364;49.026;8.712;2023-04-24T09:00:46;10.40;99.90
41678;DHT22;27364;49.026;8.712;2023-04-24T09:03:16;10.30;99.90
41678;DHT22;27364;49.026;8.712;2023-04-24T09:05:47;10.30;99.90
41678;DHT22;27364;49.026;8.712;2023-04-24T09:08:17;10.20;99.90
41678;DHT22;27364;49.026;8.712;2023-04-24T09:10:43;10.30;99.90
41678;DHT22;27364;49.026;8.712;2023-04-24T09:13:09;10.60;99.90
41678;DHT22;27364;49.026;8.712;2023-04-24T09:15:36;10.90;99.90
41678;DHT22;27364;49.026;8.712;2023-04-24T09:18:02;11.10;99.90
41678;DHT22;27364;49.026;8.712;2023-04-24T09:20:28;11.40;99.90
41678;DHT22;27364;49.026;8.712;2023-04-24T09:22:54;11.60;99.90
41678;DHT22;27364;49.026;8.712;2023-04-24T09:25:21;11.80;99.90
41678;DHT22;27364;49.026;8.712;2023-04-24T09:27:47;12.10;99.90
41678;DHT22;27364;49.026;8.712;2023-04-24T09:30:13;12.30;99.90
41678;DHT22;27364;49.026;8.712;2023-04-24T09:32:39;12.70;99.90
41678;DHT22;27364;49.026;8.712;2023-04-24T09:35:14;12.70;99.90
41678;DHT22;27364;49.026;8.712;2023-04-24T09:37:45;12.60;99.90
41678;DHT22;27364;49.026;8.712;2023-04-24T09:40:12;12.20;99.90
41678;DHT22;27364;49.026;8.712;2023-04-24T09:42:38;12.10;99.90
41678;DHT22;27364;49.026;8.712;2023-04-24T09:45:09;12.00;99.90
41678;DHT22;27364;49.026;8.712;2023-04-24T09:47:39;11.90;99.90
41678;DHT22;27364;49.026;8.712;2023-04-24T09:50:15;11.60;99.90
41678;DHT22;27364;49.026;8.712;2023-04-24T09:52:55;11.60;99.90
41678;DHT22;27364;49.026;8.712;2023-04-24T09:55:21;11.50;99.90
41678;DHT22;27364;49.026;8.712;2023-04-24T09:57:48;11.40;99.90
41678;DHT22;27364;49.026;8.712;2023-04-24T10:00:28;11.40;99.90
41678;DHT22;27364;49.026;8.712;2023-04-24T10:03:04;11.50;99.90
41678;DHT22;27364;49.026;8.712;2023-04-24T10:05:31;11.60;99.90
41678;DHT22;27364;49.026;8.712;2023-04-24T10:08:18;11.80;99.90
41678;DHT22;27364;49.026;8.712;2023-04-24T10:10:46;11.90;99.90
41678;DHT22;27364;49.026;8.712;2023-04-24T10:13:14;11.90;99.90
41678;DHT22;27364;49.026;8.712;2023-04-24T10:15:41;11.90;99.90
41678;DHT22;27364;49.026;8.712;2023-04-24T10:30:58;13.50;99.90
41678;DHT22;27364;49.026;8.712;2023-04-24T10:33:25;13.70;99.90
41678;DHT22;27364;49.026;8.712;2023-04-24T10:36:03;13.50;99.90
41678;DHT22;27364;49.026;8.712;2023-04-24T10:38:40;13.40;99.90
41678;DHT22;27364;49.026;8.712;2023-04-24T10:41:11;13.40;99.90
41678;DHT22;27364;49.026;8.712;2023-04-24T10:43:48;13.10;99.90
41678;DHT22;27364;49.026;8.712;2023-04-24T10:46:30;12.70;99.90
41678;DHT22;27364;49.026;8.712;2023-04-24T10:48:58;12.30;99.90
41678;DHT22;27364;49.026;8.712;2023-04-24T10:51:49;12.20;99.90
41678;DHT22;27364;49.026;8.712;2023-04-24T10:59:52;11.70;99.90
41678;DHT22;27364;49.026;8.712;2023-04-24T11:02:39;11.70;99.90
41678;DHT22;27364;49.026;8.712;2023-04-24T11:05:06;11.60;99.90
41678;DHT22;27364;49.026;8.712;2023-04-24T11:10:47;11.60;99.90
41678;DHT22;27364;49.026;8.712;2023-04-24T11:13:23;11.90;99.90
41678;DHT22;27364;49.026;8.712;2023-04-24T11:18:59;12.80;99.90
41678;DHT22;27364;49.026;8.712;2023-04-24T11:21:25;12.80;99.90
41678;DHT22;27364;49.026;8.712;2023-04-24T11:34:53;11.10;99.90
41678;DHT22;27364;49.026;8.712;2023-04-24T11:37:19;10.90;99.90
41678;DHT22;27364;49.026;8.712;2023-04-24T11:39:45;10.70;99.90
41678;DHT22;27364;49.026;8.712;2023-04-24T11:42:10;10.60;99.90
41678;DHT22;27364;49.026;8.712;2023-04-24T11:44:39;10.80;99.90
41678;DHT22;27364;49.026;8.712;2023-04-24T11:47:06;11.00;99.90
41678;DHT22;27364;49.026;8.712;2023-04-24T11:49:38;11.00;99.90
41678;DHT22;27364;49.026;8.712;2023-04-24T11:52:04;11.10;99.90
41678;DHT22;27364;49.026;8.712;2023-04-24T11:54:30;11.10;99.90
41678;DHT22;27364;49.026;8.712;2023-04-24T11:56:56;11.20;99.90
41678;DHT22;27364;49.026;8.712;2023-04-24T11:59:21;11.20;99.90
41678;DHT22;27364;49.026;8.712;2023-04-24T12:01:47;11.20;99.90
41678;DHT22;27364;49.026;8.712;2023-04-24T12:04:14;11.30;99.90
41678;DHT22;27364;49.026;8.712;2023-04-24T12:06:58;11.20;99.90
41678;DHT22;27364;49.026;8.712;2023-04-24T12:09:23;11.00;99.90
41678;DHT22;27364;49.026;8.712;2023-04-24T12:11:56;10.70;99.90
41678;DHT22;27364;49.026;8.712;2023-04-24T12:14:24;10.50;99.90
41678;DHT22;27364;49.026;8.712;2023-04-24T12:16:50;10.60;99.90
41678;DHT22;27364;49.026;8.712;2023-04-24T12:19:23;10.60;99.90
41678;DHT22;27364;49.026;8.712;2023-04-24T12:22:05;10.50;99.90
41678;DHT22;27364;49.026;8.712;2023-04-24T12:24:31;11.10;99.90
41678;DHT22;27364;49.026;8.712;2023-04-24T12:26:58;11.40;99.90
41678;DHT22;27364;49.026;8.712;2023-04-24T12:29:24;12.00;99.90
41678;DHT22;27364;49.026;8.712;2023-04-24T12:31:51;12.60;99.90
41678;DHT22;27364;49.026;8.712;2023-04-24T12:34:20;13.20;99.90
41678;DHT22;27364;49.026;8.712;2023-04-24T12:36:47;13.70;99.90
41678;DHT22;27364;49.026;8.712;2023-04-24T12:39:17;14.00;99.90
41678;DHT22;27364;49.026;8.712;2023-04-24T12:41:56;14.10;99.90
41678;DHT22;27364;49.026;8.712;2023-04-24T12:44:32;14.00;99.90
41678;DHT22;27364;49.026;8.712;2023-04-24T12:47:00;13.60;99.90
41678;DHT22;27364;49.026;8.712;2023-04-24T12:49:26;13.10;99.90
41678;DHT22;27364;49.026;8.712;2023-04-24T12:51:52;12.60;99.90
41678;DHT22;27364;49.026;8.712;2023-04-24T12:54:18;12.50;99.90
41678;DHT22;27364;49.026;8.712;2023-04-24T12:56:43;12.70;99.90
41678;DHT22;27364;49.026;8.712;2023-04-24T12:59:09;12.70;99.90
41678;DHT22;27364;49.026;8.712;2023-04-24T13:01:35;12.60;99.90
41678;DHT22;27364;49.026;8.712;2023-04-24T13:04:00;12.60;99.90
41678;DHT22;27364;49.026;8.712;2023-04-24T13:06:26;12.50;99.90
41678;DHT22;27364;49.026;8.712;2023-04-24T13:08:52;12.50;99.90
41678;DHT22;27364;49.026;8.712;2023-04-24T13:11:17;12.60;99.90
41678;DHT22;27364;49.026;8.712;2023-04-24T13:13:43;12.70;99.90
41678;DHT22;27364;49.026;8.712;2023-04-24T13:16:08;13.00;99.90
41678;DHT22;27364;49.026;8.712;2023-04-24T13:18:37;12.90;99.90
41678;DHT22;27364;49.026;8.712;2023-04-24T13:21:02;13.30;99.90
41678;DHT22;27364;49.026;8.712;2023-04-24T13:23:28;13.80;99.90
41678;DHT22;27364;49.026;8.712;2023-04-24T13:25:54;13.60;99.90
41678;DHT22;27364;49.026;8.712;2023-04-24T13:28:22;13.30;99.90
41678;DHT22;27364;49.026;8.712;2023-04-24T13:30:48;13.10;99.90
41678;DHT22;27364;49.026;8.712;2023-04-24T13:33:14;12.80;99.90
41678;DHT22;27364;49.026;8.712;2023-04-24T13:35:39;12.60;99.90
41678;DHT22;27364;49.026;8.712;2023-04-24T13:38:05;12.40;99.90
41678;DHT22;27364;49.026;8.712;2023-04-24T13:40:31;12.20;99.90
41678;DHT22;27364;49.026;8.712;2023-04-24T13:42:57;12.10;99.90
41678;DHT22;27364;49.026;8.712;2023-04-24T13:45:23;12.10;99.90
41678;DHT22;27364;49.026;8.712;2023-04-24T13:47:48;12.20;99.90
41678;DHT22;27364;49.026;8.712;2023-04-24T13:50:14;12.70;99.90
41678;DHT22;27364;49.026;8.712;2023-04-24T13:52:40;13.50;99.90
41678;DHT22;27364;49.026;8.712;2023-04-24T13:55:06;14.00;99.90
41678;DHT22;27364;49.026;8.712;2023-04-24T13:57:32;13.70;99.90
41678;DHT22;27364;49.026;8.712;2023-04-24T13:59:58;13.50;99.90
41678;DHT22;27364;49.026;8.712;2023-04-24T14:02:27;13.30;99.90
41678;DHT22;27364;49.026;8.712;2023-04-24T14:04:52;13.10;99.90
41678;DHT22;27364;49.026;8.712;2023-04-24T14:07:18;12.90;99.90
41678;DHT22;27364;49.026;8.712;2023-04-24T14:09:43;12.80;99.90
41678;DHT22;27364;49.026;8.712;2023-04-24T14:12:09;12.90;99.90
41678;DHT22;27364;49.026;8.712;2023-04-24T14:14:35;12.80;99.90
41678;DHT22;27364;49.026;8.712;2023-04-24T14:17:00;12.70;99.90
41678;DHT22;27364;49.026;8.712;2023-04-24T14:19:26;12.60;99.90
41678;DHT22;27364;49.026;8.712;2023-04-24T14:21:51;12.60;99.90
41678;DHT22;27364;49.026;8.712;2023-04-24T14:24:17;12.70;99.90
41678;DHT22;27364;49.026;8.712;2023-04-24T14:26:43;12.90;99.90
41678;DHT22;27364;49.026;8.712;2023-04-24T14:29:08;12.80;99.90
41678;DHT22;27364;49.026;8.712;2023-04-24T14:31:34;13.00;99.90
41678;DHT22;27364;49.026;8.712;2023-04-24T14:33:59;13.20;99.90
41678;DHT22;27364;49.026;8.712;2023-04-24T14:36:25;13.40;99.90
41678;DHT22;27364;49.026;8.712;2023-04-24T14:38:50;13.40;99.90
41678;DHT22;27364;49.026;8.712;2023-04-24T14:41:16;13.20;99.90
41678;DHT22;27364;49.026;8.712;2023-04-24T14:43:42;13.00;99.90
41678;DHT22;27364;49.026;8.712;2023-04-24T14:46:07;12.80;99.90
41678;DHT22;27364;49.026;8.712;2023-04-24T14:48:33;12.50;99.90
41678;DHT22;27364;49.026;8.712;2023-04-24T14:50:58;11.90;99.90
41678;DHT22;27364;49.026;8.712;2023-04-24T14:53:24;11.80;99.90
41678;DHT22;27364;49.026;8.712;2023-04-24T14:55:50;12.40;99.90
41678;DHT22;27364;49.026;8.712;2023-04-24T14:58:15;13.00;99.90
41678;DHT22;27364;49.026;8.712;2023-04-24T15:00:41;13.50;99.90
41678;DHT22;27364;49.026;8.712;2023-04-24T15:03:07;14.10;99.90
41678;DHT22;27364;49.026;8.712;2023-04-24T15:05:32;14.70;99.90
41678;DHT22;27364;49.026;8.712;2023-04-24T15:07:58;14.70;99.90
41678;DHT22;27364;49.026;8.712;2023-04-24T15:10:23;15.20;99.90
41678;DHT22;27364;49.026;8.712;2023-04-24T15:12:50;15.40;99.90
41678;DHT22;27364;49.026;8.712;2023-04-24T15:15:16;15.40;99.90
41678;DHT22;27364;49.026;8.712;2023-04-24T15:17:42;15.70;99.90
41678;DHT22;27364;49.026;8.712;2023-04-24T15:20:08;15.80;99.20
41678;DHT22;27364;49.026;8.712;2023-04-24T15:22:33;15.70;95.60
41678;DHT22;27364;49.026;8.712;2023-04-24T15:24:59;15.60;95.80
41678;DHT22;27364;49.026;8.712;2023-04-24T15:27:25;15.40;95.00
41678;DHT22;27364;49.026;8.712;2023-04-24T15:29:53;15.40;96.40
41678;DHT22;27364;49.026;8.712;2023-04-24T15:32:19;15.30;95.70
41678;DHT22;27364;49.026;8.712;2023-04-24T15:34:44;15.00;95.20
41678;DHT22;27364;49.026;8.712;2023-04-24T15:37:10;14.60;93.80
41678;DHT22;27364;49.026;8.712;2023-04-24T15:39:36;14.40;94.80
41678;DHT22;27364;49.026;8.712;2023-04-24T15:42:02;14.20;94.70
41678;DHT22;27364;49.026;8.712;2023-04-24T15:44:28;14.30;94.10
41678;DHT22;27364;49.026;8.712;2023-04-24T15:46:53;14.30;96.40
41678;DHT22;27364;49.026;8.712;2023-04-24T15:49:19;14.30;95.80
41678;DHT22;27364;49.026;8.712;2023-04-24T15:51:45;14.00;94.90
41678;DHT22;27364;49.026;8.712;2023-04-24T15:54:10;13.80;93.80
41678;DHT22;27364;49.026;8.712;2023-04-24T15:56:36;13.50;94.30
41678;DHT22;27364;49.026;8.712;2023-04-24T15:59:02;13.20;94.30
41678;DHT22;27364;49.026;8.712;2023-04-24T16:01:29;13.00;95.80
41678;DHT22;27364;49.026;8.712;2023-04-24T16:03:55;13.00;97.40